AirNav   Air Wisconsin Up To $57,000 Bonus
 
 413 users online  

NC05 Bradford Field Airport
Huntersville, North Carolina, USA

GOING TO HUNTERSVILLE?


FAA INFORMATION EFFECTIVE 03 NOVEMBER 2022

Location

FAA Identifier: NC05
Lat/Long: 35-24-31.5000N 080-47-39.2570W
35-24.525000N 080-47.654283W
35.4087500,-80.7942381
(estimated)
Elevation: 649 ft. / 198 m (estimated)
Variation: 05W (1985)
From city: 3 miles E of HUNTERSVILLE, NC
Time zone: UTC -5 (UTC -4 during Daylight Saving Time)
Zip code: 28078

Airport Operations

Airport use: Private use. Permission required prior to landing
Activation date: 03/1971
Control tower: no
ARTCC: ATLANTA CENTER
FSS: RALEIGH FLIGHT SERVICE STATION
Attendance: SAT-SUN 1200-DARK
Wind indicator: yes
Segmented circle: yes

Airport Communications

WX AWOS-3 at JQF (4 nm E): 133.675 (704-785-2145)
WX ASOS at CLT (14 nm SW): PHONE 704-790-5484
WX AWOS-3 at IPJ (18 nm W): 119.675 (704-735-6954)
WX AWOS-3 at RUQ (20 nm NE): 118.175 (704-637-6197)

Nearby radio navigation aids

VOR radial/distance  VOR name  Freq  Var
CLTr035/15.2CHARLOTTE VOR/DME115.0005W
BZMr148/35.2BARRETTS MOUNTAIN VOR/DME113.7506W

 
NDB name  Hdg/Dist  Freq  Var  ID
STONIA060/22.126006WGHJ --. .... .---

Airport Services

Fuel available: 100
Parking: hangars
Airframe service: NONE
Powerplant service: NONE

Runway Information

Runway 6/24

Dimensions: 3850 x 150 ft. / 1173 x 46 m
Surface: turf
RUNWAY 6  RUNWAY 24
Traffic pattern: leftright
Runway end identifier lights: nono
Obstructions: none25 ft. pline, 400 ft. from runway, 10:1 slope to clear

Airport Ownership and Management from official FAA records

Ownership: Privately-owned
Owner: W. O. & CECIL D. BRADFORD
PO BOX 1727
HUNTERSVILLE, NC 28070
Phone (704) 576-0513
Manager: STEVE YANCEY
14100 SIMS ROAD
HUNTERSVILLE, NC 28078
Phone 704-231-1051

Airport Operational Statistics

Aircraft based on the field: 32
Single engine airplanes: 32
    
Aircraft operations: avg 26/day
79% local general aviation
21% transient general aviation

Additional Remarks

FOR CD CTC CHARLOTTE APCH AT 704-359-0241.
OTHER CONTACT CECIL BRADFORD 704-576-0513; BBIDEE@AOL.COM

Instrument Procedures

There are no published instrument procedures at NC05.

Some nearby airports with instrument procedures:

KJQF - Concord-Padgett Regional Airport (4 nm E)
14A - Lake Norman Airpark (13 nm NW)
KCLT - Charlotte/Douglas International Airport (14 nm SW)
KIPJ - Lincolnton-Lincoln County Regional Airport (18 nm W)
KRUQ - Mid-Carolina Regional Airport (20 nm NE)
 
Loc | Ops | Rwys | IFR | FBO | Links
Com | Nav | Svcs | Stats | Notes
Area around NC05 (Bradford Field Airport)
 
Road maps at: MapQuest Bing Google
 
Aerial photo
WARNING: Photo may not be current or correct
Aerial photo of NC05 (Bradford Field Airport)
Photo taken 25-Mar-2006

Do you have a better or more recent aerial photo of Bradford Field Airport that you would like to share? If so, please send us your photo.

 
Sectional chart

 
Airport distance calculator
Flying to Bradford Field Airport? Find the distance to fly.

From to NC05

Sunrise and sunset
Times for 28-Nov-2022
 Local
(UTC-5)
 Zulu
(UTC)
Morning civil twilight06:4411:44
Sunrise07:1212:12
Sunset17:1022:10
Evening civil twilight17:3822:38

Current date and time
Zulu (UTC)  28-Nov-2022 08:26:43
Local (UTC-5)  28-Nov-2022 03:26:43
 
METAR
KJQF 
4nm E 
280815Z AUTO 00000KT 10SM CLR 10/06 A2981 RMK AO2
KCLT 
14nm SW 
280752Z 23004KT 10SM CLR 11/06 A2978 RMK SL080 T01110061 $
KIPJ 
19nm W 
280815Z AUTO 00000KT 10SM CLR 06/05 A2979 RMK AO2 T00560048
KRUQ 
20nm NE 
280815Z AUTO 24004KT 10SM CLR 11/06 A2978 RMK AO2 T01050055
TAF
KCLT 
14nm SW 
280520Z 2806/2912 25007KT P6SM SKC FM281200 25004KT P6SM SKC FM281600 28007KT P6SM SCT028 FM290500 05003KT P6SM FEW250
NOTAMs
Click for the latest NOTAMs
NOTAMs are issued by the DoD/FAA and will open in a separate window not controlled by AirNav.

 

 
 

Would you like to see your business listed on this page?

 If your business provides an interesting product or service to pilots, flight crews, aircraft, or users of the Bradford Field Airport, you should consider listing it here.  To start the listing process, click on the button below
 
Add a business
 

Other Pages about Bradford Field Airport

Update a link
 
Copyright © AirNav, LLC. All rights reserved. Privacy Policy  Contact